Time;durP1;ratioP1;P1;durP2;ratioP2;P2;SDS_P1;SDS_P2;PMS_P1;PMS_P2;Temp;Humidity;BMP_temperature;BMP_pressure;BME280_temperature;BME280_humidity;BME280_pressure;Samples;Min_cycle;Max_cycle;Signal;HPM_P1;HPM_P2
2022/09/30 00:00:50;;;;;;;9.27;3.67;;;5.90;99.90;;;;;;5009744;28;20536;-59
2022/09/30 00:03:15;;;;;;;8.75;3.72;;;6.00;99.90;;;;;;5006193;28;20029;-59
2022/09/30 00:05:41;;;;;;;6.30;3.05;;;5.90;99.90;;;;;;5006981;28;20084;-61
2022/09/30 00:08:07;;;;;;;5.45;2.17;;;6.00;99.90;;;;;;5011894;28;20529;-58
2022/09/30 00:10:32;;;;;;;4.00;2.38;;;6.00;99.90;;;;;;5011242;28;20493;-60
2022/09/30 00:12:58;;;;;;;7.07;1.85;;;6.00;99.90;;;;;;5014591;28;20022;-59
2022/09/30 00:15:24;;;;;;;2.53;1.75;;;6.00;99.90;;;;;;5001319;28;20096;-60
2022/09/30 00:17:50;;;;;;;6.55;3.25;;;5.90;99.90;;;;;;5019892;28;20026;-60
2022/09/30 00:20:17;;;;;;;5.85;3.47;;;6.00;99.90;;;;;;5010580;28;20025;-59
2022/09/30 00:22:43;;;;;;;10.60;4.10;;;5.90;99.90;;;;;;5010478;28;20037;-60
2022/09/30 00:25:10;;;;;;;8.57;4.15;;;5.90;99.90;;;;;;5009411;28;20021;-59
2022/09/30 00:27:36;;;;;;;8.25;4.05;;;5.90;99.90;;;;;;5010190;28;20539;-59
2022/09/30 00:30:03;;;;;;;6.38;2.75;;;5.80;99.90;;;;;;5014810;28;20107;-58
2022/09/30 00:32:28;;;;;;;4.60;3.00;;;5.70;99.90;;;;;;5010970;28;20148;-59
2022/09/30 00:34:54;;;;;;;4.65;2.17;;;5.60;99.90;;;;;;5008220;28;20113;-59
2022/09/30 00:37:20;;;;;;;4.30;2.70;;;5.40;99.90;;;;;;5002128;28;20167;-60
2022/09/30 00:39:46;;;;;;;4.20;2.33;;;5.40;99.90;;;;;;5016078;28;20549;-60
2022/09/30 00:42:14;;;;;;;5.15;2.50;;;5.30;99.90;;;;;;5011423;28;20038;-58
2022/09/30 00:44:44;;;;;;;4.57;2.50;;;5.20;99.90;;;;;;5002344;28;20034;-59
2022/09/30 00:47:21;;;;;;;4.55;2.70;;;5.30;99.90;;;;;;5008644;28;20470;-60
2022/09/30 00:49:48;;;;;;;4.95;2.30;;;5.50;99.90;;;;;;5016899;28;20088;-59
2022/09/30 00:52:14;;;;;;;4.43;2.35;;;5.60;99.90;;;;;;5015272;28;20037;-59
2022/09/30 00:54:40;;;;;;;4.93;3.00;;;5.60;99.90;;;;;;5023828;28;20029;-59
2022/09/30 00:57:07;;;;;;;6.13;2.10;;;5.60;99.90;;;;;;5012737;28;20389;-59
2022/09/30 00:59:40;;;;;;;3.22;2.45;;;5.50;99.90;;;;;;5016815;28;20030;-59
2022/09/30 01:02:08;;;;;;;5.07;2.45;;;5.40;99.90;;;;;;5012251;28;20056;-59
2022/09/30 01:04:36;;;;;;;3.88;3.00;;;5.40;99.90;;;;;;5008649;28;20500;-62
2022/09/30 01:07:05;;;;;;;3.22;2.35;;;5.30;99.90;;;;;;5015532;28;20029;-59
2022/09/30 01:09:33;;;;;;;7.30;2.78;;;5.30;99.90;;;;;;5014649;28;20402;-58
2022/09/30 01:11:59;;;;;;;4.95;3.03;;;5.30;99.90;;;;;;5015996;28;20044;-59
2022/09/30 01:14:27;;;;;;;4.78;3.20;;;5.20;99.90;;;;;;5015211;28;20034;-59
2022/09/30 01:17:05;;;;;;;3.72;2.38;;;5.20;99.90;;;;;;5008028;28;20030;-59
2022/09/30 01:19:54;;;;;;;4.70;2.60;;;5.10;99.90;;;;;;5006872;28;20082;-59
2022/09/30 01:22:31;;;;;;;6.32;2.78;;;5.20;99.90;;;;;;5007148;28;20418;-59
2022/09/30 01:25:12;;;;;;;3.33;2.33;;;5.20;99.90;;;;;;5012661;28;20034;-59
2022/09/30 01:27:47;;;;;;;4.10;2.60;;;5.20;99.90;;;;;;5009717;28;20389;-60
2022/09/30 01:30:43;;;;;;;7.63;3.30;;;5.20;99.90;;;;;;5008336;28;20064;-58
2022/09/30 01:33:18;;;;;;;6.20;2.65;;;5.20;99.90;;;;;;5021556;28;20071;-59
2022/09/30 01:35:50;;;;;;;6.00;2.97;;;5.20;99.90;;;;;;5018085;28;20036;-60
2022/09/30 01:38:47;;;;;;;7.63;2.95;;;5.20;99.90;;;;;;5009564;28;20040;-60
2022/09/30 01:41:22;;;;;;;5.88;2.45;;;5.20;99.90;;;;;;5015980;28;20041;-60
2022/09/30 01:44:40;;;;;;;6.15;2.67;;;5.20;99.90;;;;;;5012493;28;20034;-60
2022/09/30 01:47:14;;;;;;;5.13;2.50;;;5.20;99.90;;;;;;4980484;28;20095;-58
2022/09/30 01:49:58;;;;;;;5.25;2.30;;;5.20;99.90;;;;;;5006518;28;20026;-59
2022/09/30 01:52:51;;;;;;;5.22;2.65;;;5.30;99.90;;;;;;5010317;28;20078;-59
2022/09/30 01:55:23;;;;;;;6.18;2.58;;;5.20;99.90;;;;;;5012541;28;20079;-59
2022/09/30 01:57:54;;;;;;;7.20;3.17;;;5.20;99.90;;;;;;5011551;28;20406;-60
2022/09/30 02:00:20;;;;;;;4.60;2.75;;;5.20;99.90;;;;;;5009919;28;20030;-59
2022/09/30 02:02:54;;;;;;;4.18;2.40;;;5.10;99.90;;;;;;5015965;28;20041;-59
2022/09/30 02:05:30;;;;;;;4.93;2.58;;;5.00;99.90;;;;;;5001709;28;20040;-59
2022/09/30 02:08:04;;;;;;;6.15;3.15;;;5.00;99.90;;;;;;5002198;28;20099;-59
2022/09/30 02:10:43;;;;;;;5.95;2.55;;;5.00;99.90;;;;;;5013164;28;20175;-59
2022/09/30 02:13:36;;;;;;;4.25;2.13;;;5.00;99.90;;;;;;5006768;28;20026;-59
2022/09/30 02:16:11;;;;;;;4.20;2.25;;;5.00;99.90;;;;;;4967714;28;20039;-59
2022/09/30 02:18:59;;;;;;;3.45;2.28;;;5.00;99.90;;;;;;4969896;28;20070;-59
2022/09/30 02:21:31;;;;;;;4.97;2.70;;;4.90;99.90;;;;;;4969027;28;20078;-59
2022/09/30 02:24:04;;;;;;;3.53;2.92;;;5.00;99.90;;;;;;4960887;28;20027;-59
2022/09/30 02:26:35;;;;;;;3.25;2.42;;;5.00;99.90;;;;;;4968159;28;20046;-59
2022/09/30 02:29:14;;;;;;;6.13;2.20;;;5.10;99.90;;;;;;4965242;28;20035;-59
2022/09/30 02:31:44;;;;;;;2.97;2.15;;;5.10;99.90;;;;;;4961821;28;20031;-59
2022/09/30 02:34:19;;;;;;;5.20;2.15;;;5.10;99.90;;;;;;4968401;28;20037;-59
2022/09/30 02:36:49;;;;;;;3.15;2.22;;;5.10;99.90;;;;;;4960487;28;20038;-59
2022/09/30 02:39:30;;;;;;;4.55;2.17;;;5.10;99.90;;;;;;4961077;28;20055;-59
2022/09/30 02:42:05;;;;;;;7.13;2.75;;;5.10;99.90;;;;;;4968570;28;20035;-59
2022/09/30 02:44:31;;;;;;;6.35;2.40;;;5.00;99.90;;;;;;4968387;28;20106;-59
2022/09/30 02:47:14;;;;;;;4.13;2.72;;;4.90;99.90;;;;;;4969099;28;20503;-59
2022/09/30 02:50:00;;;;;;;5.90;2.83;;;4.90;99.90;;;;;;4966601;28;20133;-59
2022/09/30 02:52:43;;;;;;;5.22;2.70;;;4.90;99.90;;;;;;4977237;28;20103;-59
2022/09/30 02:55:26;;;;;;;4.32;2.67;;;4.90;99.90;;;;;;5006558;28;20041;-58
2022/09/30 02:57:58;;;;;;;6.10;2.67;;;4.80;99.90;;;;;;5004512;28;20076;-57
2022/09/30 03:00:24;;;;;;;4.32;2.25;;;4.70;99.90;;;;;;5004728;28;20030;-59
2022/09/30 03:02:59;;;;;;;4.25;3.03;;;4.70;99.90;;;;;;5009836;28;20073;-62
2022/09/30 03:05:27;;;;;;;6.55;2.90;;;4.80;99.90;;;;;;5000249;28;20519;-61
2022/09/30 03:07:53;;;;;;;3.83;2.70;;;4.70;99.90;;;;;;5017026;28;20033;-59
2022/09/30 03:10:18;;;;;;;3.80;2.42;;;4.60;99.90;;;;;;5011731;28;20511;-58
2022/09/30 03:13:22;;;;;;;4.07;2.13;;;4.50;99.90;;;;;;5005047;28;20045;-58
2022/09/30 03:16:21;;;;;;;4.78;2.78;;;4.50;99.90;;;;;;5004052;28;20022;-60
2022/09/30 03:19:11;;;;;;;5.53;2.85;;;4.40;99.90;;;;;;5022677;28;20112;-58
2022/09/30 03:21:42;;;;;;;5.85;2.55;;;4.30;99.90;;;;;;5010381;28;20065;-58
2022/09/30 03:24:33;;;;;;;4.63;3.10;;;4.30;99.90;;;;;;5007115;28;20026;-59
2022/09/30 03:27:23;;;;;;;8.32;2.92;;;4.30;99.90;;;;;;5012169;28;20397;-60
2022/09/30 03:30:04;;;;;;;3.78;2.50;;;4.20;99.90;;;;;;5008647;28;20026;-59
2022/09/30 03:32:44;;;;;;;5.97;2.92;;;4.20;99.90;;;;;;5011601;28;20374;-59
2022/09/30 03:35:29;;;;;;;8.57;2.90;;;4.20;99.90;;;;;;5015927;28;20083;-59
2022/09/30 03:38:04;;;;;;;10.35;3.25;;;4.40;99.90;;;;;;5013245;28;20316;-60
2022/09/30 03:40:42;;;;;;;7.57;3.33;;;4.30;99.90;;;;;;5014281;28;20030;-59
2022/09/30 03:43:28;;;;;;;3.85;2.03;;;4.30;99.90;;;;;;5025270;22;20046;-58
2022/09/30 03:46:20;;;;;;;8.88;2.95;;;4.30;99.90;;;;;;5010377;28;20029;-57
2022/09/30 03:48:49;;;;;;;4.53;2.28;;;4.40;99.90;;;;;;5008129;28;20095;-57
2022/09/30 03:51:15;;;;;;;4.55;2.28;;;4.40;99.90;;;;;;5005111;28;20128;-57
2022/09/30 03:53:42;;;;;;;2.38;1.98;;;4.30;99.90;;;;;;5013040;28;20041;-57
2022/09/30 03:56:08;;;;;;;3.83;2.28;;;4.40;99.90;;;;;;5008287;28;20030;-57
2022/09/30 03:58:39;;;;;;;4.13;2.45;;;4.40;99.90;;;;;;5011285;28;20397;-57
2022/09/30 04:01:05;;;;;;;4.77;3.07;;;4.30;99.90;;;;;;5007222;28;20030;-60
2022/09/30 04:03:31;;;;;;;4.72;1.90;;;4.40;99.90;;;;;;5009661;28;20605;-57
2022/09/30 04:05:57;;;;;;;3.53;2.47;;;4.40;99.90;;;;;;5014972;28;20418;-57
2022/09/30 04:08:23;;;;;;;3.97;2.20;;;4.50;99.90;;;;;;5020600;28;20036;-57
2022/09/30 04:10:49;;;;;;;3.30;1.98;;;4.40;99.90;;;;;;5018628;28;20026;-57
2022/09/30 04:13:14;;;;;;;4.55;2.30;;;4.50;99.90;;;;;;5012179;28;20385;-57
2022/09/30 04:15:40;;;;;;;4.20;2.38;;;4.40;99.90;;;;;;5013836;28;20033;-57
2022/09/30 04:18:06;;;;;;;4.60;2.95;;;4.40;99.90;;;;;;5009846;28;20033;-58
2022/09/30 04:20:32;;;;;;;9.95;3.25;;;4.30;99.90;;;;;;5010574;28;20097;-58
2022/09/30 04:22:59;;;;;;;3.72;2.30;;;4.30;99.90;;;;;;5012698;28;20060;-58
2022/09/30 04:25:26;;;;;;;3.60;2.42;;;4.40;99.90;;;;;;5008136;28;20033;-58
2022/09/30 04:27:56;;;;;;;4.53;3.03;;;4.30;99.90;;;;;;5014874;28;20386;-58
2022/09/30 04:30:22;;;;;;;4.10;2.40;;;4.30;99.90;;;;;;5006911;28;20189;-58
2022/09/30 04:32:48;;;;;;;4.50;2.75;;;4.30;99.90;;;;;;5005982;28;20124;-58
2022/09/30 04:35:14;;;;;;;2.97;2.40;;;4.40;99.90;;;;;;5017183;28;20442;-58
2022/09/30 04:37:42;;;;;;;6.13;2.65;;;4.30;99.90;;;;;;5008931;28;20057;-57
2022/09/30 04:40:09;;;;;;;4.68;2.50;;;4.30;99.90;;;;;;5011093;28;20414;-58
2022/09/30 04:42:35;;;;;;;3.92;2.00;;;4.30;99.90;;;;;;5004881;28;20050;-58
2022/09/30 04:45:02;;;;;;;4.20;2.35;;;4.40;99.90;;;;;;5013914;28;20462;-58
2022/09/30 04:47:29;;;;;;;2.75;1.88;;;4.30;99.90;;;;;;5012830;28;20064;-58
2022/09/30 04:49:56;;;;;;;4.85;2.40;;;4.30;99.90;;;;;;5010929;28;20521;-58
2022/09/30 04:52:22;;;;;;;2.63;2.13;;;4.30;99.90;;;;;;5003710;28;20382;-57
2022/09/30 04:54:48;;;;;;;4.25;2.35;;;4.30;99.90;;;;;;5012459;28;20030;-57
2022/09/30 04:57:14;;;;;;;4.55;2.67;;;4.30;99.90;;;;;;5014905;28;20052;-58
2022/09/30 04:59:40;;;;;;;3.15;2.15;;;4.40;99.90;;;;;;5016564;28;20099;-58
2022/09/30 05:02:09;;;;;;;5.32;2.53;;;4.40;99.90;;;;;;5021133;28;20107;-59
2022/09/30 05:04:35;;;;;;;5.50;2.95;;;4.40;99.90;;;;;;5023290;28;20022;-58
2022/09/30 05:07:02;;;;;;;5.25;3.28;;;4.40;99.90;;;;;;5013285;28;20030;-58
2022/09/30 05:09:28;;;;;;;6.85;2.95;;;4.30;99.90;;;;;;5012163;28;20451;-58
2022/09/30 05:11:54;;;;;;;3.63;2.63;;;4.30;99.90;;;;;;5015140;28;20129;-58
2022/09/30 05:14:20;;;;;;;6.65;2.78;;;4.20;99.90;;;;;;5018941;28;20112;-58
2022/09/30 05:16:46;;;;;;;6.20;2.85;;;4.20;99.90;;;;;;5011123;28;20026;-58
2022/09/30 05:19:12;;;;;;;3.45;1.92;;;4.20;99.90;;;;;;5007389;28;20033;-58
2022/09/30 05:21:38;;;;;;;6.13;3.08;;;4.30;99.90;;;;;;5019714;28;20042;-58
2022/09/30 05:24:03;;;;;;;5.72;2.67;;;4.30;99.90;;;;;;5015057;28;20026;-59
2022/09/30 05:26:29;;;;;;;3.33;2.22;;;4.30;99.90;;;;;;5016666;28;20025;-59
2022/09/30 05:28:56;;;;;;;7.28;3.00;;;4.30;99.90;;;;;;5022580;28;20470;-58
2022/09/30 05:31:22;;;;;;;6.28;2.65;;;4.40;99.90;;;;;;5006404;28;20398;-59
2022/09/30 05:33:48;;;;;;;3.65;2.08;;;4.40;99.90;;;;;;5012056;28;20029;-58
2022/09/30 05:36:15;;;;;;;6.88;3.35;;;4.40;99.90;;;;;;5019633;28;20084;-58
2022/09/30 05:38:41;;;;;;;5.72;2.50;;;4.30;99.90;;;;;;5014469;28;20033;-58
2022/09/30 05:41:10;;;;;;;3.38;2.08;;;4.40;99.90;;;;;;5019828;28;20030;-57
2022/09/30 05:43:38;;;;;;;4.30;2.25;;;4.40;99.90;;;;;;5025899;28;20044;-58
2022/09/30 05:46:04;;;;;;;4.32;2.97;;;4.40;99.90;;;;;;5014900;28;20037;-57
2022/09/30 05:48:29;;;;;;;5.30;2.53;;;4.40;99.90;;;;;;5016578;28;20026;-57
2022/09/30 05:50:57;;;;;;;3.33;2.22;;;4.50;99.90;;;;;;5017793;28;20064;-57
2022/09/30 05:53:23;;;;;;;6.15;2.80;;;4.40;99.90;;;;;;5014274;28;20029;-58
2022/09/30 05:55:49;;;;;;;4.63;3.08;;;4.40;99.90;;;;;;5012691;28;20049;-57
2022/09/30 05:58:16;;;;;;;3.50;2.80;;;4.60;99.90;;;;;;5016013;28;20104;-57
2022/09/30 06:00:43;;;;;;;3.30;2.20;;;4.60;99.90;;;;;;5011191;28;20021;-57
2022/09/30 06:03:09;;;;;;;4.57;2.25;;;4.60;99.90;;;;;;5011225;28;20501;-57
2022/09/30 06:05:35;;;;;;;5.95;2.55;;;4.50;99.90;;;;;;5012746;28;20116;-58
2022/09/30 06:08:02;;;;;;;4.55;2.15;;;4.60;99.90;;;;;;5013592;28;20104;-58
2022/09/30 06:10:28;;;;;;;5.93;2.50;;;4.60;99.90;;;;;;5019615;28;20022;-59
2022/09/30 06:12:53;;;;;;;3.45;2.15;;;4.60;99.90;;;;;;5017040;28;20033;-59
2022/09/30 06:15:20;;;;;;;5.78;2.70;;;4.70;99.90;;;;;;5010228;28;20057;-58
2022/09/30 06:17:52;;;;;;;4.07;2.83;;;4.70;99.90;;;;;;5004225;28;20030;-58
2022/09/30 06:20:18;;;;;;;7.38;2.88;;;4.80;99.90;;;;;;5025441;28;20363;-58
2022/09/30 06:22:44;;;;;;;4.90;2.70;;;4.90;99.90;;;;;;5019785;28;20061;-58
2022/09/30 06:25:10;;;;;;;5.85;2.75;;;5.00;99.90;;;;;;5020487;28;20156;-58
2022/09/30 06:27:37;;;;;;;7.22;2.50;;;5.00;99.90;;;;;;5022098;28;20473;-58
2022/09/30 06:30:04;;;;;;;6.72;3.17;;;4.90;99.90;;;;;;5009041;28;20102;-59
2022/09/30 06:32:30;;;;;;;8.98;3.45;;;5.00;99.90;;;;;;5007960;28;20125;-59
2022/09/30 06:34:55;;;;;;;4.55;2.35;;;5.00;99.90;;;;;;5009576;28;20109;-58
2022/09/30 06:37:22;;;;;;;3.72;2.70;;;5.00;99.90;;;;;;5016896;28;20037;-58
2022/09/30 06:39:49;;;;;;;7.25;2.80;;;4.90;99.90;;;;;;5010807;28;20026;-58
2022/09/30 06:42:15;;;;;;;3.60;2.72;;;4.90;99.90;;;;;;5010226;28;20030;-58
2022/09/30 06:44:41;;;;;;;7.43;3.35;;;4.90;99.90;;;;;;5011962;28;20076;-58
2022/09/30 06:47:07;;;;;;;3.78;2.47;;;5.00;99.90;;;;;;5011809;28;20720;-58
2022/09/30 06:49:33;;;;;;;6.82;3.05;;;5.00;99.90;;;;;;5010278;28;20034;-58
2022/09/30 06:52:00;;;;;;;5.32;2.55;;;5.00;99.90;;;;;;5013949;28;20116;-58
2022/09/30 06:54:29;;;;;;;9.20;2.95;;;5.00;99.90;;;;;;5014576;28;20045;-58
2022/09/30 06:56:56;;;;;;;7.57;3.42;;;5.00;99.90;;;;;;5019509;28;20030;-58
2022/09/30 06:59:25;;;;;;;4.80;2.85;;;5.00;99.90;;;;;;5010221;28;20046;-58
2022/09/30 07:01:52;;;;;;;5.07;3.25;;;5.00;99.90;;;;;;5010673;28;20115;-57
2022/09/30 07:04:17;;;;;;;5.72;2.78;;;5.10;99.90;;;;;;5015905;28;20062;-58
2022/09/30 07:06:43;;;;;;;4.80;2.88;;;5.10;99.90;;;;;;5010669;28;20073;-58
2022/09/30 07:09:10;;;;;;;7.32;4.60;;;5.20;99.90;;;;;;5005590;28;20493;-58
2022/09/30 07:11:36;;;;;;;8.32;3.28;;;5.30;99.90;;;;;;5013532;28;20048;-58
2022/09/30 07:14:03;;;;;;;6.22;3.22;;;5.30;99.90;;;;;;5011135;28;20100;-58
2022/09/30 07:16:30;;;;;;;6.15;3.22;;;5.40;99.90;;;;;;5009306;28;20030;-58
2022/09/30 07:18:58;;;;;;;9.13;3.22;;;5.50;99.90;;;;;;5000238;28;20073;-59
2022/09/30 07:21:24;;;;;;;6.63;3.38;;;5.50;99.90;;;;;;5006118;28;20131;-58
2022/09/30 07:23:51;;;;;;;4.25;3.10;;;5.60;99.90;;;;;;5009477;28;20494;-58
2022/09/30 07:26:21;;;;;;;6.22;3.92;;;5.70;99.90;;;;;;5004267;28;20053;-59
2022/09/30 07:28:48;;;;;;;7.05;3.80;;;5.80;99.90;;;;;;5007058;28;20022;-59
2022/09/30 07:31:22;;;;;;;5.68;3.65;;;5.90;99.90;;;;;;5010211;28;20106;-58
2022/09/30 07:33:52;;;;;;;5.85;3.28;;;5.90;99.90;;;;;;5007531;28;20033;-57
2022/09/30 07:36:28;;;;;;;7.05;4.70;;;6.00;99.90;;;;;;5007224;28;20026;-58
2022/09/30 07:38:55;;;;;;;7.43;4.35;;;6.20;99.90;;;;;;5017165;28;20037;-58
2022/09/30 07:41:27;;;;;;;7.70;4.72;;;6.20;99.90;;;;;;5008761;28;20025;-57
2022/09/30 07:43:58;;;;;;;7.30;4.00;;;6.30;99.90;;;;;;5006180;28;20096;-58
2022/09/30 07:46:35;;;;;;;4.65;3.42;;;6.40;99.90;;;;;;5005053;28;20121;-57
2022/09/30 07:49:03;;;;;;;8.93;4.05;;;6.40;99.90;;;;;;4998798;28;20073;-58
2022/09/30 07:51:34;;;;;;;6.35;3.65;;;6.50;99.90;;;;;;5008171;28;20385;-58
2022/09/30 07:54:04;;;;;;;4.05;2.70;;;6.60;99.90;;;;;;5005892;28;20109;-57
2022/09/30 07:56:30;;;;;;;5.82;3.53;;;6.60;99.90;;;;;;5009656;28;20029;-58
2022/09/30 07:58:59;;;;;;;7.18;3.78;;;6.70;99.90;;;;;;5014459;28;20555;-58
2022/09/30 08:01:26;;;;;;;5.30;3.33;;;6.80;99.90;;;;;;5002024;28;20129;-58
2022/09/30 08:03:54;;;;;;;6.38;4.38;;;6.80;99.90;;;;;;4990110;28;20057;-58
2022/09/30 08:06:21;;;;;;;6.50;3.55;;;6.90;99.90;;;;;;5004287;28;20141;-58
2022/09/30 08:08:49;;;;;;;11.93;4.80;;;7.10;99.90;;;;;;5003167;28;20038;-58
2022/09/30 08:11:15;;;;;;;16.15;9.45;;;7.20;99.90;;;;;;5003559;28;20773;-57
2022/09/30 08:13:40;;;;;;;12.80;6.90;;;7.20;99.90;;;;;;5004707;28;20034;-57
2022/09/30 08:16:06;;;;;;;11.60;5.80;;;7.30;99.90;;;;;;5002001;28;20076;-57
2022/09/30 08:18:32;;;;;;;14.68;9.60;;;7.50;99.90;;;;;;5004977;28;20037;-58
2022/09/30 08:21:05;;;;;;;12.88;5.20;;;7.60;99.90;;;;;;5019981;28;20030;-58
2022/09/30 08:23:32;;;;;;;7.25;4.55;;;7.80;99.90;;;;;;5007480;28;20045;-58
2022/09/30 08:26:09;;;;;;;5.68;4.03;;;7.90;99.90;;;;;;5006899;28;20037;-58
2022/09/30 08:28:36;;;;;;;7.05;3.63;;;8.10;99.90;;;;;;5005415;28;20031;-58
2022/09/30 08:31:17;;;;;;;9.55;4.13;;;8.20;99.90;;;;;;5001675;28;20129;-58
2022/09/30 08:33:43;;;;;;;9.85;4.22;;;8.40;99.90;;;;;;5005058;28;20050;-58
2022/09/30 08:36:15;;;;;;;8.52;4.38;;;8.60;99.90;;;;;;5007827;28;20032;-58
2022/09/30 08:38:41;;;;;;;8.05;4.85;;;8.80;99.90;;;;;;5009317;28;20088;-57
2022/09/30 08:41:28;;;;;;;6.45;4.05;;;9.10;99.90;;;;;;5010527;28;20083;-57
2022/09/30 08:44:03;;;;;;;8.65;3.95;;;9.50;99.90;;;;;;5007805;28;20054;-58
2022/09/30 08:47:19;;;;;;;5.88;4.03;;;9.80;99.90;;;;;;5006499;28;20030;-58
2022/09/30 08:50:00;;;;;;;7.93;4.18;;;10.20;99.90;;;;;;5008001;28;20060;-58
2022/09/30 08:52:41;;;;;;;7.47;3.97;;;10.60;99.90;;;;;;5008372;28;20080;-58
2022/09/30 08:55:07;;;;;;;8.90;3.72;;;11.00;99.90;;;;;;5006239;28;20038;-57
2022/09/30 08:57:42;;;;;;;4.80;3.25;;;11.30;99.90;;;;;;5009397;28;20029;-57
2022/09/30 09:00:15;;;;;;;9.48;6.65;;;11.70;99.90;;;;;;5007908;28;20030;-58
2022/09/30 09:03:13;;;;;;;13.80;11.20;;;12.10;99.90;;;;;;5005396;28;20105;-57
2022/09/30 09:05:49;;;;;;;4.93;3.35;;;12.50;99.90;;;;;;5009178;28;20091;-58
2022/09/30 09:08:39;;;;;;;6.45;3.28;;;12.80;99.90;;;;;;5006431;28;20517;-58
2022/09/30 09:11:34;;;;;;;4.43;2.80;;;13.30;99.90;;;;;;5008576;28;20045;-57
2022/09/30 09:14:31;;;;;;;3.42;2.85;;;13.50;99.90;;;;;;5001395;28;20030;-58
2022/09/30 09:17:12;;;;;;;3.60;2.58;;;13.70;99.90;;;;;;5006339;28;20134;-59
2022/09/30 09:20:00;;;;;;;5.18;2.50;;;13.90;99.90;;;;;;5006482;28;20501;-59
2022/09/30 09:22:27;;;;;;;5.32;2.42;;;14.10;99.90;;;;;;5003570;28;20038;-59
2022/09/30 09:24:54;;;;;;;2.70;2.17;;;14.20;99.90;;;;;;5005167;28;20023;-59
2022/09/30 09:27:49;;;;;;;55.55;32.08;;;14.30;99.90;;;;;;5001912;28;21110;-59
2022/09/30 09:30:19;;;;;;;25.35;18.15;;;14.60;99.90;;;;;;4999200;28;20119;-59
2022/09/30 09:32:54;;;;;;;7.25;6.00;;;14.90;99.90;;;;;;5003593;28;20563;-58
2022/09/30 09:35:41;;;;;;;5.10;3.42;;;15.00;99.90;;;;;;5007903;28;20116;-58
2022/09/30 09:38:34;;;;;;;6.10;4.20;;;15.20;99.90;;;;;;5000169;28;20162;-58
2022/09/30 09:41:06;;;;;;;3.17;1.95;;;15.50;99.90;;;;;;5008268;28;20033;-59
2022/09/30 09:43:32;;;;;;;;;;;15.60;99.90;;;;;;5001119;28;20037;-62
2022/09/30 09:46:33;;;;;;;3.13;2.10;;;15.80;99.90;;;;;;5008149;28;20357;-59
2022/09/30 09:49:19;;;;;;;2.78;1.92;;;15.90;99.90;;;;;;5003890;28;20038;-58
2022/09/30 09:52:10;;;;;;;3.05;1.83;;;16.10;99.90;;;;;;5010756;28;20057;-58
2022/09/30 09:54:43;;;;;;;2.38;1.50;;;16.10;99.90;;;;;;5005769;28;20026;-58
2022/09/30 09:57:13;;;;;;;5.97;1.73;;;16.00;99.90;;;;;;5007858;28;20061;-59
2022/09/30 09:59:54;;;;;;;2.55;2.05;;;16.10;99.90;;;;;;5004311;28;20038;-58
2022/09/30 10:02:30;;;;;;;2.40;1.70;;;16.20;99.90;;;;;;5001809;28;20041;-58
2022/09/30 10:05:00;;;;;;;3.42;2.15;;;16.20;99.90;;;;;;5009345;28;20022;-57
2022/09/30 10:07:31;;;;;;;2.50;1.75;;;16.20;99.90;;;;;;5005940;28;20046;-57
2022/09/30 10:10:18;;;;;;;3.25;1.60;;;16.10;99.90;;;;;;5001106;28;20492;-57
2022/09/30 10:12:47;;;;;;;2.00;1.58;;;16.10;99.90;;;;;;4998781;28;20042;-57
2022/09/30 10:15:21;;;;;;;1.50;1.30;;;16.20;99.90;;;;;;5004863;28;20037;-58
2022/09/30 10:17:52;;;;;;;1.40;1.30;;;16.50;99.90;;;;;;5009384;28;20361;-57
2022/09/30 10:20:29;;;;;;;2.57;1.40;;;16.60;99.90;;;;;;5005968;28;20076;-58
2022/09/30 10:23:29;;;;;;;0.93;0.85;;;16.70;99.90;;;;;;5002077;28;20026;-58
2022/09/30 10:26:02;;;;;;;1.10;0.85;;;16.90;99.90;;;;;;5006078;28;20087;-57
2022/09/30 10:28:43;;;;;;;4.57;1.25;;;16.90;99.90;;;;;;5004109;28;20057;-57
2022/09/30 10:31:31;;;;;;;1.80;0.90;;;17.10;99.90;;;;;;5007061;28;20041;-57
2022/09/30 10:34:10;;;;;;;1.67;0.80;;;17.20;99.90;;;;;;5002073;28;20553;-58
2022/09/30 10:36:39;;;;;;;0.80;0.50;;;17.20;99.90;;;;;;5002002;28;20029;-58
2022/09/30 10:39:27;;;;;;;2.55;0.50;;;17.20;99.90;;;;;;5009271;28;20084;-57
2022/09/30 10:42:27;;;;;;;1.75;0.73;;;17.20;99.90;;;;;;5008031;28;20038;-58
2022/09/30 10:45:00;;;;;;;2.55;0.50;;;17.10;99.90;;;;;;5000388;28;20579;-57
2022/09/30 10:47:27;;;;;;;1.38;0.70;;;17.20;99.90;;;;;;5004059;28;20104;-57
2022/09/30 10:49:53;;;;;;;0.47;0.35;;;17.30;99.90;;;;;;5006559;28;20026;-57
2022/09/30 10:52:23;;;;;;;2.00;0.70;;;17.40;99.90;;;;;;5002806;28;20045;-57
2022/09/30 10:55:04;;;;;;;1.98;0.57;;;17.30;99.90;;;;;;5009674;28;20026;-57
2022/09/30 10:57:36;;;;;;;0.75;0.28;;;17.50;99.90;;;;;;5007230;28;20120;-58
2022/09/30 11:00:12;;;;;;;0.40;0.30;;;17.60;99.90;;;;;;5000556;28;20056;-57
2022/09/30 11:02:43;;;;;;;0.50;0.28;;;17.60;99.90;;;;;;5005397;28;20393;-57
2022/09/30 11:05:34;;;;;;;1.17;0.43;;;17.60;99.90;;;;;;5006333;28;20034;-58
2022/09/30 11:08:29;;;;;;;1.70;0.88;;;17.60;99.90;;;;;;5005367;28;20087;-57
2022/09/30 11:11:17;;;;;;;1.55;0.20;;;17.70;99.90;;;;;;5002183;28;20378;-57
2022/09/30 11:14:12;;;;;;;1.17;0.30;;;18.00;99.90;;;;;;5004704;28;20038;-58
2022/09/30 11:17:02;;;;;;;0.52;0.40;;;18.20;99.90;;;;;;5004954;28;20478;-58
2022/09/30 11:19:51;;;;;;;1.95;0.30;;;18.30;99.90;;;;;;5004364;28;20034;-58
2022/09/30 11:22:36;;;;;;;0.40;0.40;;;18.70;99.90;;;;;;5006403;28;20485;-58
2022/09/30 11:25:02;;;;;;;1.48;0.35;;;18.70;99.90;;;;;;4998611;28;20496;-58
2022/09/30 11:27:31;;;;;;;0.43;0.30;;;18.60;99.90;;;;;;5006853;28;20113;-59
2022/09/30 11:30:15;;;;;;;0.30;0.28;;;18.60;99.90;;;;;;5007711;28;20442;-58
2022/09/30 11:32:52;;;;;;;1.52;0.65;;;18.70;99.90;;;;;;5004688;28;20077;-58
2022/09/30 11:35:24;;;;;;;0.98;0.35;;;18.60;99.90;;;;;;5004480;28;20404;-59
2022/09/30 11:37:58;;;;;;;1.90;0.65;;;18.70;99.90;;;;;;5006860;28;20030;-58
2022/09/30 11:40:41;;;;;;;1.52;0.60;;;18.70;99.90;;;;;;5007401;28;20052;-59
2022/09/30 11:43:18;;;;;;;0.82;0.50;;;18.40;99.90;;;;;;5002530;28;20042;-57
2022/09/30 11:46:09;;;;;;;0.60;0.52;;;18.40;99.90;;;;;;5004982;28;20799;-57
2022/09/30 11:48:49;;;;;;;1.02;0.50;;;18.60;99.90;;;;;;5003213;28;20117;-58
2022/09/30 11:51:37;;;;;;;1.05;0.70;;;19.10;99.90;;;;;;5006789;28;21426;-58
2022/09/30 11:54:29;;;;;;;1.10;0.40;;;19.40;99.90;;;;;;5003955;28;20394;-57
2022/09/30 11:57:13;;;;;;;0.82;0.60;;;19.70;99.90;;;;;;4959492;28;20565;-58
2022/09/30 11:59:51;;;;;;;0.55;0.55;;;19.30;99.90;;;;;;4957622;28;20038;-59
2022/09/30 12:03:17;;;;;;;1.35;0.50;;;19.30;99.90;;;;;;4959041;28;20418;-59
2022/09/30 12:05:48;;;;;;;1.33;0.60;;;18.60;99.90;;;;;;4905517;29;20559;-59
2022/09/30 12:08:31;;;;;;;0.70;0.47;;;18.30;99.90;;;;;;4902937;29;20524;-59
2022/09/30 12:11:15;;;;;;;0.57;0.40;;;18.20;99.90;;;;;;4905223;29;20107;-58
2022/09/30 12:13:48;;;;;;;1.58;0.50;;;17.90;99.90;;;;;;4905121;29;20393;-58
2022/09/30 12:16:22;;;;;;;0.95;0.32;;;17.80;99.90;;;;;;4902028;29;20040;-57
2022/09/30 12:19:10;;;;;;;1.20;0.50;;;17.70;99.90;;;;;;4906317;29;20787;-58
2022/09/30 12:21:39;;;;;;;0.57;0.40;;;17.70;99.90;;;;;;4904570;29;20112;-58
2022/09/30 12:24:36;;;;;;;0.57;0.50;;;17.70;99.90;;;;;;4901234;29;20516;-58
2022/09/30 12:27:10;;;;;;;2.00;0.80;;;17.60;99.90;;;;;;4903934;29;20096;-57
2022/09/30 12:32:45;;;;;;;0.60;0.40;;;17.40;99.90;;;;;;4904545;29;20202;-58
2022/09/30 12:35:23;;;;;;;1.67;0.50;;;17.60;99.90;;;;;;4943166;28;20039;-57
2022/09/30 12:38:17;;;;;;;1.52;0.60;;;17.70;99.90;;;;;;4944851;28;20135;-57
2022/09/30 12:40:55;;;;;;;1.48;0.30;;;17.60;99.90;;;;;;4999699;28;20504;-58
2022/09/30 12:43:50;;;;;;;0.55;0.50;;;18.00;99.90;;;;;;4999867;28;20548;-58
2022/09/30 12:46:45;;;;;;;1.58;0.40;;;18.30;99.90;;;;;;5004449;28;20049;-57
2022/09/30 12:49:18;;;;;;;0.28;0.25;;;18.30;99.90;;;;;;5002714;28;20029;-58
2022/09/30 12:51:50;;;;;;;0.93;0.70;;;18.60;99.90;;;;;;5004787;28;20061;-57
2022/09/30 12:54:22;;;;;;;5.32;1.13;;;19.20;99.90;;;;;;5003559;28;20026;-57
2022/09/30 12:57:02;;;;;;;1.65;0.55;;;19.10;99.90;;;;;;5000228;28;20034;-57
2022/09/30 12:59:34;;;;;;;0.60;0.52;;;19.10;99.90;;;;;;5004101;28;20026;-58
2022/09/30 13:02:03;;;;;;;1.52;0.70;;;19.10;99.90;;;;;;5009486;28;20037;-58
2022/09/30 13:04:38;;;;;;;2.13;1.02;;;18.90;99.90;;;;;;5004834;28;20382;-58
2022/09/30 13:07:19;;;;;;;1.35;0.90;;;18.90;99.90;;;;;;5020728;28;20030;-58
2022/09/30 13:10:25;;;;;;;1.35;0.65;;;18.90;99.90;;;;;;5001452;28;20433;-58
2022/09/30 13:13:18;;;;;;;2.17;0.82;;;18.80;99.90;;;;;;4999045;28;20042;-58
2022/09/30 13:15:45;;;;;;;1.55;1.00;;;18.20;99.90;;;;;;5003384;28;20053;-58
2022/09/30 13:18:19;;;;;;;0.98;0.70;;;18.00;99.90;;;;;;5000245;28;20048;-58
2022/09/30 13:21:03;;;;;;;2.33;0.93;;;17.80;99.90;;;;;;5004496;28;20042;-57
2022/09/30 13:23:48;;;;;;;0.93;0.70;;;17.50;99.90;;;;;;5009521;28;20065;-58
2022/09/30 13:26:32;;;;;;;1.95;0.85;;;17.40;99.90;;;;;;5002377;28;20076;-59
2022/09/30 13:29:00;;;;;;;2.95;0.80;;;17.40;99.90;;;;;;5006018;28;20033;-59
2022/09/30 13:31:31;;;;;;;2.75;1.13;;;17.30;99.90;;;;;;5005053;28;20030;-59